Time;durP1;ratioP1;P1;durP2;ratioP2;P2;SDS_P1;SDS_P2;PMS_P1;PMS_P2;Temp;Humidity;BMP_temperature;BMP_pressure;BME280_temperature;BME280_humidity;BME280_pressure;Samples;Min_cycle;Max_cycle;Signal;HPM_P1;HPM_P2
2022/05/20 00:00:59;;;;;;;29.05;18.75;;;17.00;99.90;;;;;;4183975;28;20171;-89
2022/05/20 00:03:00;;;;;;;24.50;18.40;;;16.90;99.90;;;;;;4183967;28;20318;-87
2022/05/20 00:05:00;;;;;;;29.77;19.70;;;17.10;99.90;;;;;;4183743;28;20171;-88
2022/05/20 00:07:02;;;;;;;32.30;19.65;;;16.90;99.90;;;;;;4200489;28;20266;-89
2022/05/20 00:09:03;;;;;;;27.90;18.48;;;16.90;99.90;;;;;;4184072;28;20627;-89
2022/05/20 00:11:04;;;;;;;32.88;20.08;;;16.90;99.90;;;;;;4183867;28;20274;-89
2022/05/20 00:13:06;;;;;;;33.97;21.83;;;17.00;99.90;;;;;;4183738;28;20183;-90
2022/05/20 00:15:09;;;;;;;33.92;22.88;;;17.10;99.90;;;;;;4183942;28;20171;-89
2022/05/20 00:17:10;;;;;;;31.65;22.05;;;17.60;99.90;;;;;;4200221;28;20274;-89
2022/05/20 00:19:12;;;;;;;39.97;23.48;;;17.90;99.90;;;;;;4183781;28;20175;-87
2022/05/20 00:21:13;;;;;;;41.65;23.65;;;17.70;99.90;;;;;;4183688;28;20172;-88
2022/05/20 00:23:14;;;;;;;33.35;22.63;;;17.60;99.90;;;;;;4183841;28;20270;-88
2022/05/20 00:27:36;;;;;;;36.88;24.05;;;17.10;99.90;;;;;;4200109;28;20203;-90
2022/05/20 00:29:36;;;;;;;38.58;25.27;;;17.30;99.90;;;;;;4183942;28;20168;-88
2022/05/20 00:31:37;;;;;;;38.92;24.30;;;17.40;99.90;;;;;;4183378;28;20205;-90
2022/05/20 00:33:38;;;;;;;37.20;22.65;;;17.10;99.90;;;;;;4183272;28;20226;-88
2022/05/20 00:35:39;;;;;;;43.75;22.92;;;16.50;99.90;;;;;;4199886;28;20167;-90
2022/05/20 00:37:40;;;;;;;33.58;22.40;;;16.40;99.90;;;;;;4183234;28;20179;-89
2022/05/20 00:39:41;;;;;;;35.22;21.58;;;16.40;99.90;;;;;;4183964;28;20726;-90
2022/05/20 00:41:42;;;;;;;30.02;21.10;;;16.10;99.90;;;;;;4183280;28;20206;-89
2022/05/20 00:43:47;;;;;;;33.35;19.98;;;15.90;99.90;;;;;;4199888;28;20182;-89
2022/05/20 00:45:48;;;;;;;34.13;20.85;;;15.90;99.90;;;;;;4199397;28;20214;-87
2022/05/20 00:47:49;;;;;;;32.65;21.38;;;15.80;99.90;;;;;;4199893;28;20250;-87
2022/05/20 00:49:53;;;;;;;30.33;20.58;;;15.70;99.90;;;;;;4183249;28;20180;-90
2022/05/20 00:51:54;;;;;;;37.05;21.67;;;15.70;99.90;;;;;;4183165;28;20551;-89
2022/05/20 00:54:06;;;;;;;32.70;21.38;;;16.10;99.90;;;;;;4183208;28;20205;-90
2022/05/20 00:56:10;;;;;;;36.00;23.40;;;16.70;99.90;;;;;;4182970;28;20196;-89
2022/05/20 00:58:17;;;;;;;40.15;22.38;;;17.20;99.90;;;;;;4182834;28;20654;-89
2022/05/20 01:00:29;;;;;;;33.22;21.75;;;17.00;99.90;;;;;;4183161;28;20179;-87
2022/05/20 01:02:33;;;;;;;33.35;22.20;;;16.60;99.90;;;;;;4182961;28;20206;-89
2022/05/20 01:04:35;;;;;;;34.67;21.08;;;16.20;99.90;;;;;;4182809;28;20175;-89
2022/05/20 01:06:36;;;;;;;34.05;20.52;;;16.00;99.90;;;;;;4199027;28;20253;-89
2022/05/20 01:08:38;;;;;;;32.53;20.00;;;15.80;99.90;;;;;;4182961;28;20176;-88
2022/05/20 01:10:39;;;;;;;32.17;20.15;;;15.60;99.90;;;;;;4199588;28;20644;-89
2022/05/20 01:12:40;;;;;;;32.45;21.58;;;15.70;99.90;;;;;;4182954;28;20171;-90
2022/05/20 01:14:41;;;;;;;36.65;21.92;;;15.70;99.90;;;;;;4182625;28;20179;-90
2022/05/20 01:16:41;;;;;;;33.50;21.80;;;15.60;99.90;;;;;;4199258;28;20214;-89
2022/05/20 01:18:45;;;;;;;34.10;21.90;;;15.60;99.90;;;;;;4182759;28;20167;-90
2022/05/20 01:20:51;;;;;;;33.00;22.20;;;15.60;99.90;;;;;;4199210;28;20174;-90
2022/05/20 01:22:54;;;;;;;33.03;21.52;;;15.60;99.90;;;;;;4183063;28;20171;-90
2022/05/20 01:24:55;;;;;;;37.92;21.98;;;15.60;99.90;;;;;;4199239;28;20179;-90
2022/05/20 01:26:55;;;;;;;37.13;23.17;;;15.60;99.90;;;;;;4199107;28;20803;-90
2022/05/20 01:28:56;;;;;;;36.97;23.77;;;15.50;99.90;;;;;;4199211;28;20183;-89
2022/05/20 01:31:02;;;;;;;38.35;23.88;;;16.10;99.90;;;;;;4199294;28;20178;-89
2022/05/20 01:33:05;;;;;;;39.95;25.08;;;16.60;99.90;;;;;;4199352;28;20248;-88
2022/05/20 01:35:11;;;;;;;44.95;27.38;;;16.90;99.90;;;;;;4199261;28;20181;-88
2022/05/20 01:37:12;;;;;;;44.63;27.38;;;16.50;99.90;;;;;;4182605;28;20227;-89
2022/05/20 01:39:13;;;;;;;43.72;25.90;;;16.00;99.90;;;;;;4199341;28;20179;-89
2022/05/20 01:41:34;;;;;;;41.10;27.45;;;16.00;99.90;;;;;;4199751;28;20532;-89
2022/05/20 01:43:59;;;;;;;44.50;28.95;;;16.60;99.90;;;;;;4199086;28;20186;-90
2022/05/20 01:46:25;;;;;;;47.25;26.77;;;16.80;99.90;;;;;;4182174;28;20262;-89
2022/05/20 01:49:02;;;;;;;45.33;28.52;;;16.40;99.90;;;;;;4182479;28;20175;-90
2022/05/20 01:51:09;;;;;;;48.13;27.80;;;16.10;99.90;;;;;;4164778;28;20272;-90
2022/05/20 01:53:28;;;;;;;47.58;26.20;;;16.40;99.90;;;;;;4182078;28;20179;-90
2022/05/20 01:55:49;;;;;;;46.50;26.98;;;16.50;99.90;;;;;;4181632;28;20203;-89
2022/05/20 01:57:53;;;;;;;52.03;26.33;;;16.30;99.90;;;;;;4198739;28;20217;-89
2022/05/20 02:00:05;;;;;;;46.45;28.13;;;16.00;99.90;;;;;;4182439;28;20175;-90
2022/05/20 02:02:13;;;;;;;47.35;28.50;;;15.60;99.90;;;;;;4198641;28;20539;-88
2022/05/20 02:04:20;;;;;;;49.20;28.40;;;15.60;99.90;;;;;;4199604;28;20199;-89
2022/05/20 02:06:41;;;;;;;48.22;29.15;;;15.50;99.90;;;;;;4198345;28;20282;-89
2022/05/20 02:08:57;;;;;;;47.15;29.02;;;15.40;99.90;;;;;;4198453;28;20179;-88
2022/05/20 02:11:41;;;;;;;46.03;29.65;;;15.40;99.90;;;;;;4198304;28;20213;-89
2022/05/20 02:13:53;;;;;;;42.72;27.17;;;15.50;99.90;;;;;;4188751;28;20182;-91
2022/05/20 02:16:02;;;;;;;43.00;26.85;;;15.60;99.90;;;;;;4178565;28;20239;-89
2022/05/20 02:18:05;;;;;;;44.70;26.80;;;15.70;99.90;;;;;;4198500;28;20650;-90
2022/05/20 02:20:38;;;;;;;42.88;26.90;;;15.80;99.90;;;;;;4198465;28;20213;-89
2022/05/20 02:22:54;;;;;;;42.40;25.75;;;15.90;99.90;;;;;;4197698;28;20183;-90
2022/05/20 02:24:56;;;;;;;42.72;26.55;;;15.80;99.90;;;;;;4181557;28;20175;-88
2022/05/20 02:27:12;;;;;;;45.17;26.77;;;16.00;99.90;;;;;;4181757;28;20191;-88
2022/05/20 02:29:21;;;;;;;43.13;28.13;;;16.10;99.90;;;;;;4181652;28;20195;-88
2022/05/20 02:31:41;;;;;;;46.55;27.42;;;16.20;99.90;;;;;;4181360;28;20197;-89
2022/05/20 02:33:42;;;;;;;41.85;26.30;;;16.20;99.90;;;;;;4181712;28;20274;-90
2022/05/20 02:35:43;;;;;;;41.42;25.83;;;16.00;99.90;;;;;;4181611;28;20698;-90
2022/05/20 02:37:44;;;;;;;49.45;28.80;;;16.20;99.90;;;;;;4198280;28;20190;-90
2022/05/20 02:39:44;;;;;;;44.10;27.42;;;16.50;99.90;;;;;;4181720;28;20167;-90
2022/05/20 02:41:47;;;;;;;49.60;29.35;;;16.90;99.90;;;;;;4181639;28;20278;-89
2022/05/20 02:43:48;;;;;;;48.45;30.05;;;17.30;99.90;;;;;;4181596;28;20179;-88
2022/05/20 02:45:51;;;;;;;47.45;29.23;;;17.20;99.90;;;;;;4181304;28;20175;-90
2022/05/20 02:47:51;;;;;;;44.15;28.30;;;16.90;99.90;;;;;;4181409;28;20210;-89
2022/05/20 02:49:52;;;;;;;47.45;28.10;;;16.70;99.90;;;;;;4181495;28;20172;-89
2022/05/20 02:51:53;;;;;;;47.17;30.30;;;16.60;99.90;;;;;;4181508;28;20176;-88
2022/05/20 02:53:54;;;;;;;47.58;28.95;;;16.90;99.90;;;;;;4181402;28;20644;-90
2022/05/20 02:55:55;;;;;;;49.03;28.38;;;17.10;99.90;;;;;;4197472;28;20246;-88
2022/05/20 02:57:56;;;;;;;45.30;26.73;;;17.00;99.90;;;;;;4197925;28;20171;-88
2022/05/20 03:04:35;;;;;;;46.60;26.05;;;16.60;99.90;;;;;;4197891;28;20175;-87
2022/05/20 03:06:39;;;;;;;39.10;25.60;;;16.50;99.90;;;;;;4179947;28;20687;-89
2022/05/20 03:08:41;;;;;;;44.90;26.38;;;16.40;99.90;;;;;;4181145;28;20179;-89
2022/05/20 03:10:42;;;;;;;47.15;25.58;;;16.50;99.90;;;;;;4181287;28;20213;-89
2022/05/20 03:12:43;;;;;;;41.25;26.52;;;16.40;99.90;;;;;;4181309;28;20175;-90
2022/05/20 03:14:44;;;;;;;36.88;25.52;;;16.60;99.90;;;;;;4181184;28;20175;-87
2022/05/20 03:16:44;;;;;;;43.78;27.05;;;17.20;99.90;;;;;;4180834;28;20215;-89
2022/05/20 03:18:45;;;;;;;38.13;26.40;;;17.70;99.90;;;;;;4197727;28;20185;-90
2022/05/20 03:20:46;;;;;;;43.22;26.90;;;17.80;99.90;;;;;;4181045;28;20172;-89
2022/05/20 03:22:46;;;;;;;52.85;28.00;;;17.30;99.90;;;;;;4197700;28;20198;-88
2022/05/20 03:24:47;;;;;;;40.83;26.75;;;17.10;99.90;;;;;;4181166;28;20535;-87
2022/05/20 03:26:48;;;;;;;48.30;27.05;;;17.10;99.90;;;;;;4180853;28;20196;-88
2022/05/20 03:28:49;;;;;;;47.17;27.90;;;17.30;99.90;;;;;;4181235;28;20171;-90
2022/05/20 03:30:49;;;;;;;48.55;28.50;;;17.10;99.90;;;;;;4181114;28;20180;-89
2022/05/20 03:32:51;;;;;;;47.60;27.58;;;17.00;99.90;;;;;;4180870;28;20314;-89
2022/05/20 03:34:52;;;;;;;47.90;27.65;;;17.10;99.90;;;;;;4181107;28;20171;-89
2022/05/20 03:36:52;;;;;;;47.70;28.15;;;17.50;99.90;;;;;;4181096;28;20618;-90
2022/05/20 03:38:53;;;;;;;50.17;30.27;;;17.80;99.90;;;;;;4180975;28;20217;-87
2022/05/20 03:40:54;;;;;;;49.05;29.80;;;17.70;99.90;;;;;;4197302;28;20186;-89
2022/05/20 03:42:55;;;;;;;48.42;29.90;;;17.40;99.90;;;;;;4181345;28;20180;-89
2022/05/20 03:44:55;;;;;;;49.47;30.58;;;17.00;99.90;;;;;;4197601;28;20304;-90
2022/05/20 03:46:57;;;;;;;53.05;31.02;;;16.70;99.90;;;;;;4197671;28;20190;-89
2022/05/20 03:49:00;;;;;;;52.35;30.95;;;16.40;99.90;;;;;;4181198;28;20207;-88
2022/05/20 03:51:13;;;;;;;55.20;31.55;;;16.20;99.90;;;;;;4197467;28;20237;-90
2022/05/20 03:53:13;;;;;;;55.60;32.67;;;16.20;99.90;;;;;;4197644;28;20182;-87
2022/05/20 03:55:14;;;;;;;56.28;33.08;;;16.20;99.90;;;;;;4180962;28;20163;-90
2022/05/20 03:57:15;;;;;;;57.65;33.20;;;16.10;99.90;;;;;;4180655;28;20282;-90
2022/05/20 03:59:16;;;;;;;57.65;32.97;;;16.20;99.90;;;;;;4197520;28;20167;-90
2022/05/20 04:03:41;;;;;;;52.97;31.17;;;15.80;99.90;;;;;;4197301;28;20179;-89
2022/05/20 04:05:42;;;;;;;51.83;29.88;;;15.80;99.90;;;;;;4180881;28;20163;-90
2022/05/20 04:07:42;;;;;;;58.10;30.83;;;16.00;99.90;;;;;;4180670;28;20269;-90
2022/05/20 04:09:45;;;;;;;51.30;30.05;;;16.20;99.90;;;;;;4197287;28;20264;-90
2022/05/20 04:11:46;;;;;;;43.85;28.90;;;16.20;99.90;;;;;;4180757;28;20214;-89
2022/05/20 04:13:46;;;;;;;50.42;30.60;;;16.20;99.90;;;;;;4197325;28;20178;-90
2022/05/20 04:15:47;;;;;;;45.35;29.25;;;15.90;99.90;;;;;;4180565;28;20290;-90
2022/05/20 04:17:48;;;;;;;48.63;31.05;;;15.80;99.90;;;;;;4181746;28;20180;-90
2022/05/20 04:19:49;;;;;;;51.85;30.77;;;16.20;99.90;;;;;;4183730;28;20198;-89
2022/05/20 04:21:52;;;;;;;51.17;32.03;;;16.80;99.90;;;;;;4200131;28;20673;-89
2022/05/20 04:23:53;;;;;;;50.13;31.75;;;16.60;99.90;;;;;;4183800;28;20195;-89
2022/05/20 04:25:53;;;;;;;54.13;31.60;;;16.80;99.90;;;;;;4183590;28;20225;-90
2022/05/20 04:27:54;;;;;;;49.72;31.58;;;17.10;99.90;;;;;;4200345;28;20569;-89
2022/05/20 04:29:56;;;;;;;46.50;30.20;;;17.30;99.90;;;;;;4183671;28;20179;-90
2022/05/20 04:31:56;;;;;;;56.75;30.02;;;17.00;99.90;;;;;;4183449;28;20164;-91
2022/05/20 04:33:57;;;;;;;49.05;30.90;;;16.70;99.90;;;;;;4183546;28;20183;-89
2022/05/20 04:35:58;;;;;;;55.33;31.75;;;16.90;99.90;;;;;;4183296;28;20195;-89
2022/05/20 04:37:59;;;;;;;56.45;33.60;;;17.20;99.90;;;;;;4200054;28;20213;-89
2022/05/20 04:39:59;;;;;;;60.03;31.42;;;17.20;99.90;;;;;;4183218;28;20183;-88
2022/05/20 04:46:57;;;;;;;47.92;31.02;;;17.00;99.90;;;;;;4199884;28;20581;-90
2022/05/20 04:48:57;;;;;;;52.85;31.65;;;17.20;99.90;;;;;;4183555;28;20221;-88
2022/05/20 04:50:58;;;;;;;55.53;31.67;;;17.60;99.90;;;;;;4200042;28;20175;-89
2022/05/20 04:52:59;;;;;;;52.05;32.58;;;17.60;99.90;;;;;;4183361;28;20171;-88
2022/05/20 04:55:00;;;;;;;58.88;33.58;;;17.50;99.90;;;;;;4183539;28;20168;-89
2022/05/20 04:57:01;;;;;;;51.70;30.92;;;17.30;99.90;;;;;;4183220;28;20212;-89
2022/05/20 04:59:03;;;;;;;56.95;33.28;;;17.40;99.90;;;;;;4183349;28;20175;-89
2022/05/20 05:01:04;;;;;;;64.28;34.15;;;17.50;99.90;;;;;;4183040;28;20168;-89
2022/05/20 05:03:04;;;;;;;55.22;33.05;;;17.50;99.90;;;;;;4183195;28;20168;-89
2022/05/20 05:05:09;;;;;;;53.67;33.00;;;17.50;99.90;;;;;;4199492;28;20252;-87
2022/05/20 05:07:11;;;;;;;57.25;33.65;;;17.60;99.90;;;;;;4182909;28;20194;-90
2022/05/20 05:09:12;;;;;;;52.55;31.48;;;17.40;99.90;;;;;;4182965;28;20237;-90
2022/05/20 05:11:13;;;;;;;53.05;31.98;;;17.10;99.90;;;;;;4199447;28;20167;-91
2022/05/20 05:13:15;;;;;;;51.75;31.23;;;17.10;99.90;;;;;;4182906;28;20179;-89
2022/05/20 05:15:15;;;;;;;51.97;31.00;;;17.00;99.90;;;;;;4216204;28;20221;-90
2022/05/20 05:18:09;;;;;;;49.30;30.05;;;17.10;99.90;;;;;;4182630;28;20199;-90
2022/05/20 05:19:41;;;;;;;47.72;29.10;;;17.20;99.90;;;;;;4199012;28;20256;-90
2022/05/20 05:21:42;;;;;;;46.55;28.83;;;17.30;99.90;;;;;;4182495;28;20707;-90
2022/05/20 05:23:44;;;;;;;52.20;28.88;;;17.60;99.90;;;;;;4199391;28;20178;-90
2022/05/20 05:25:45;;;;;;;52.90;28.63;;;17.90;99.90;;;;;;4182720;28;20171;-90
2022/05/20 05:27:46;;;;;;;40.95;26.38;;;17.50;99.90;;;;;;4199330;28;20166;-90
2022/05/20 05:29:47;;;;;;;45.63;29.63;;;17.50;99.90;;;;;;4181776;28;20259;-90
2022/05/20 05:31:48;;;;;;;48.17;29.00;;;17.60;99.90;;;;;;4182478;28;20176;-90
2022/05/20 05:33:50;;;;;;;50.88;30.98;;;18.10;99.90;;;;;;4182521;28;20310;-88
2022/05/20 05:35:51;;;;;;;54.65;31.23;;;18.40;99.90;;;;;;4182378;28;20211;-87
2022/05/20 05:37:53;;;;;;;46.70;30.48;;;18.50;99.90;;;;;;4182532;28;20176;-90
2022/05/20 05:39:53;;;;;;;49.95;31.33;;;18.60;99.90;;;;;;4182068;28;20179;-89
2022/05/20 05:41:54;;;;;;;54.13;33.05;;;18.50;99.90;;;;;;4198603;28;20265;-89
2022/05/20 05:43:55;;;;;;;52.08;32.03;;;18.30;99.90;;;;;;4198818;28;20527;-87
2022/05/20 05:45:56;;;;;;;55.25;32.75;;;18.10;99.90;;;;;;4182325;28;20172;-90
2022/05/20 05:48:02;;;;;;;61.15;33.08;;;18.00;99.90;;;;;;4199175;28;20272;-90
2022/05/20 05:50:04;;;;;;;55.25;33.60;;;18.00;99.90;;;;;;4182385;28;20176;-90
2022/05/20 05:52:05;;;;;;;58.15;34.15;;;18.10;99.90;;;;;;4182147;28;20274;-88
2022/05/20 05:54:05;;;;;;;58.15;31.73;;;18.20;99.90;;;;;;4198452;28;20163;-88
2022/05/20 05:56:09;;;;;;;56.03;32.85;;;18.30;99.90;;;;;;4198347;28;20223;-89
2022/05/20 05:58:09;;;;;;;52.55;32.28;;;18.40;99.90;;;;;;4182216;28;20172;-87
2022/05/20 06:00:12;;;;;;;53.05;31.83;;;18.40;99.90;;;;;;4198732;28;20241;-89
2022/05/20 06:02:13;;;;;;;54.22;32.03;;;18.50;99.90;;;;;;4181341;28;20211;-88
2022/05/20 06:04:14;;;;;;;50.95;31.92;;;18.50;99.90;;;;;;4198590;28;20167;-88
2022/05/20 06:06:14;;;;;;;57.42;31.73;;;18.50;99.90;;;;;;4182256;28;20241;-89
2022/05/20 06:08:16;;;;;;;48.72;31.25;;;18.50;99.90;;;;;;4182117;28;20186;-90
2022/05/20 06:10:17;;;;;;;48.28;28.80;;;18.50;99.90;;;;;;4198686;28;20167;-89
2022/05/20 06:12:18;;;;;;;48.17;28.83;;;18.40;99.90;;;;;;4181841;28;20178;-90
2022/05/20 06:14:19;;;;;;;48.13;29.55;;;18.50;99.90;;;;;;4182065;28;20262;-89
2022/05/20 06:16:21;;;;;;;43.50;28.40;;;18.80;99.90;;;;;;4198174;28;20694;-88
2022/05/20 06:18:23;;;;;;;44.92;27.52;;;19.10;99.90;;;;;;4182041;28;20180;-88
2022/05/20 06:20:26;;;;;;;47.97;29.23;;;19.30;99.90;;;;;;4181987;28;20171;-88
2022/05/20 06:22:27;;;;;;;46.20;28.52;;;19.50;99.90;;;;;;4181995;28;20245;-89
2022/05/20 06:24:28;;;;;;;43.55;28.83;;;19.50;99.90;;;;;;4181865;28;20171;-89
2022/05/20 06:26:29;;;;;;;42.83;27.17;;;19.00;99.90;;;;;;4181443;28;20257;-87
2022/05/20 06:28:30;;;;;;;43.03;26.60;;;18.80;99.90;;;;;;4181614;28;20176;-89
2022/05/20 06:30:32;;;;;;;44.33;27.50;;;19.10;99.90;;;;;;4181612;28;20658;-90
2022/05/20 06:32:33;;;;;;;40.83;24.58;;;19.10;99.90;;;;;;4181894;28;20258;-90
2022/05/20 06:41:31;;;;;;;45.70;26.90;;;19.20;99.90;;;;;;4197647;28;20198;-90
2022/05/20 06:43:33;;;;;;;40.17;26.17;;;19.40;99.90;;;;;;4181757;28;20751;-89
2022/05/20 06:45:34;;;;;;;47.83;28.05;;;19.70;99.90;;;;;;4181582;28;20245;-89
2022/05/20 06:47:34;;;;;;;38.50;26.17;;;19.90;99.90;;;;;;4197828;28;20204;-90
2022/05/20 06:49:35;;;;;;;43.05;25.50;;;20.10;99.90;;;;;;4198252;28;20261;-90
2022/05/20 06:51:37;;;;;;;41.03;25.75;;;20.20;99.90;;;;;;4181322;28;20178;-88
2022/05/20 06:53:38;;;;;;;39.25;26.45;;;20.40;99.90;;;;;;4181303;28;20176;-89
2022/05/20 06:55:39;;;;;;;38.55;26.52;;;20.40;99.90;;;;;;4181287;28;20282;-89
2022/05/20 06:57:40;;;;;;;49.05;27.33;;;20.30;99.90;;;;;;4181214;28;20296;-89
2022/05/20 06:59:41;;;;;;;40.65;26.55;;;20.20;99.90;;;;;;4181431;28;20168;-90
2022/05/20 07:01:41;;;;;;;43.47;27.52;;;20.10;99.90;;;;;;4197834;28;20305;-89
2022/05/20 07:03:42;;;;;;;43.42;27.55;;;20.10;99.90;;;;;;4181336;28;20459;-89
2022/05/20 07:05:43;;;;;;;39.25;26.40;;;20.10;99.90;;;;;;4198047;28;20650;-89
2022/05/20 07:07:43;;;;;;;42.80;27.80;;;20.30;99.90;;;;;;4181071;28;20195;-90
2022/05/20 07:09:44;;;;;;;41.05;25.50;;;20.70;99.90;;;;;;4181547;28;20198;-89
2022/05/20 07:11:45;;;;;;;44.15;27.63;;;20.80;99.90;;;;;;4181289;28;20171;-88
2022/05/20 07:13:47;;;;;;;37.88;26.73;;;20.90;99.90;;;;;;4197838;28;20264;-90
2022/05/20 07:15:48;;;;;;;42.05;25.75;;;20.50;99.90;;;;;;4180714;28;20210;-90
2022/05/20 07:17:48;;;;;;;38.85;24.83;;;20.20;99.90;;;;;;4180634;28;20266;-88
2022/05/20 07:19:51;;;;;;;40.90;26.17;;;20.40;99.90;;;;;;4197462;28;20216;-90
2022/05/20 07:21:51;;;;;;;42.03;26.77;;;20.70;99.90;;;;;;4181036;28;20167;-90
2022/05/20 07:23:52;;;;;;;40.63;25.85;;;20.70;99.90;;;;;;4197854;28;20297;-86
2022/05/20 07:25:53;;;;;;;40.60;25.08;;;20.60;99.90;;;;;;4180864;28;20168;-89
2022/05/20 07:27:59;;;;;;;40.05;24.38;;;20.60;99.90;;;;;;4181129;28;20180;-89
2022/05/20 07:30:00;;;;;;;41.90;25.98;;;20.50;99.90;;;;;;4180918;28;20167;-88
2022/05/20 07:32:00;;;;;;;40.00;26.85;;;20.50;99.90;;;;;;4197512;28;20643;-87
2022/05/20 07:34:01;;;;;;;45.75;27.13;;;20.50;99.90;;;;;;4181029;28;20175;-89
2022/05/20 07:36:02;;;;;;;42.25;26.63;;;20.40;99.90;;;;;;4180592;28;20199;-88
2022/05/20 07:38:03;;;;;;;38.50;25.58;;;20.40;99.90;;;;;;4197271;28;20535;-90
2022/05/20 07:40:04;;;;;;;45.78;27.17;;;20.30;99.90;;;;;;4180649;28;20187;-87
2022/05/20 07:42:06;;;;;;;41.10;26.38;;;20.20;99.90;;;;;;4180722;28;20206;-87
2022/05/20 07:44:07;;;;;;;41.80;25.98;;;20.10;99.90;;;;;;4197590;28;20194;-90
2022/05/20 07:46:07;;;;;;;41.20;26.20;;;20.10;99.90;;;;;;4180959;28;20187;-87
2022/05/20 07:48:08;;;;;;;50.83;28.65;;;20.10;99.90;;;;;;4180842;28;20188;-90
2022/05/20 07:50:10;;;;;;;41.72;26.10;;;20.00;99.90;;;;;;4181082;28;20163;-90
2022/05/20 07:52:13;;;;;;;43.40;26.63;;;19.90;99.90;;;;;;4181029;28;20179;-89
2022/05/20 07:54:19;;;;;;;43.95;27.48;;;19.80;99.90;;;;;;4200558;28;20167;-90
2022/05/20 07:56:32;;;;;;;44.40;26.52;;;19.80;99.90;;;;;;4183956;28;20241;-87
2022/05/20 07:58:40;;;;;;;38.17;25.02;;;19.90;99.90;;;;;;4200575;28;20531;-87
2022/05/20 08:00:42;;;;;;;40.03;24.52;;;20.10;99.90;;;;;;4184104;28;20167;-89
2022/05/20 08:02:43;;;;;;;45.65;26.20;;;20.30;99.90;;;;;;4200680;28;20175;-88
2022/05/20 08:04:53;;;;;;;38.00;24.42;;;20.60;99.90;;;;;;4184048;28;20179;-89
2022/05/20 08:06:54;;;;;;;34.78;23.02;;;21.10;99.90;;;;;;4183905;28;20274;-88
2022/05/20 08:08:56;;;;;;;41.70;25.40;;;21.80;99.90;;;;;;4183922;28;20664;-86
2022/05/20 08:10:56;;;;;;;38.08;25.13;;;22.00;99.90;;;;;;4200496;28;20166;-90
2022/05/20 08:12:57;;;;;;;35.72;23.33;;;21.90;99.90;;;;;;4184110;28;20241;-90
2022/05/20 08:14:58;;;;;;;35.65;23.70;;;21.80;99.90;;;;;;4200307;28;20236;-89
2022/05/20 08:17:00;;;;;;;38.90;24.65;;;21.90;99.90;;;;;;4183842;28;20211;-88
2022/05/20 08:19:00;;;;;;;38.53;24.73;;;22.00;99.90;;;;;;4183850;28;20171;-89
2022/05/20 08:21:01;;;;;;;38.90;24.45;;;21.80;99.90;;;;;;4183715;28;20262;-89
2022/05/20 08:23:02;;;;;;;38.13;24.83;;;21.50;99.90;;;;;;4183781;28;20246;-90
2022/05/20 08:25:04;;;;;;;42.35;24.60;;;21.30;99.90;;;;;;4200184;28;20182;-90
2022/05/20 08:27:04;;;;;;;31.92;21.63;;;21.30;99.90;;;;;;4183577;28;20191;-90
2022/05/20 08:29:06;;;;;;;35.88;23.20;;;21.10;99.90;;;;;;4183631;28;20559;-88
2022/05/20 08:31:07;;;;;;;41.65;23.83;;;21.20;99.90;;;;;;4183854;28;20163;-90
2022/05/20 08:33:07;;;;;;;40.38;24.80;;;21.50;99.90;;;;;;4200027;28;20186;-87
2022/05/20 08:35:10;;;;;;;35.92;22.88;;;21.90;99.90;;;;;;4183612;28;20218;-87
2022/05/20 08:37:11;;;;;;;30.70;20.23;;;22.00;99.90;;;;;;4200016;28;20236;-91
2022/05/20 08:39:14;;;;;;;35.17;23.27;;;21.50;99.90;;;;;;4183634;28;20226;-90
2022/05/20 08:41:27;;;;;;;35.38;21.02;;;21.70;99.90;;;;;;4183280;28;20223;-90
2022/05/20 08:43:33;;;;;;;33.90;20.63;;;21.60;99.90;;;;;;4183641;28;20229;-89
2022/05/20 08:45:34;;;;;;;33.38;21.35;;;21.30;99.90;;;;;;4200044;28;20205;-89
2022/05/20 08:47:46;;;;;;;36.13;22.48;;;21.10;99.90;;;;;;4183434;28;20195;-88
2022/05/20 08:49:51;;;;;;;38.35;24.00;;;21.60;99.90;;;;;;4183555;28;20179;-89
2022/05/20 08:51:53;;;;;;;37.35;23.98;;;21.70;99.90;;;;;;4183284;28;20180;-89
2022/05/20 08:53:54;;;;;;;32.67;21.60;;;22.10;99.90;;;;;;4199707;28;20181;-91
2022/05/20 08:56:00;;;;;;;36.30;22.70;;;22.20;99.90;;;;;;4199621;28;20199;-89
2022/05/20 08:58:03;;;;;;;34.60;22.17;;;22.10;99.90;;;;;;4183133;28;20258;-89
2022/05/20 09:00:10;;;;;;;35.70;23.98;;;21.60;99.90;;;;;;4182839;28;20172;-89
2022/05/20 09:02:10;;;;;;;37.58;23.95;;;21.60;99.90;;;;;;4182934;28;20179;-89
2022/05/20 09:04:14;;;;;;;44.38;26.23;;;21.60;99.90;;;;;;4199609;28;20170;-88
2022/05/20 09:06:16;;;;;;;41.00;25.77;;;21.50;99.90;;;;;;4182842;28;20223;-89
2022/05/20 09:08:24;;;;;;;47.70;27.38;;;21.50;99.90;;;;;;4182942;28;20671;-90
2022/05/20 09:10:29;;;;;;;41.15;26.30;;;21.50;99.90;;;;;;4183021;28;20580;-89
2022/05/20 09:12:38;;;;;;;38.13;25.40;;;21.50;99.90;;;;;;4182869;28;20181;-89
2022/05/20 09:17:09;;;;;;;38.63;26.13;;;21.40;99.90;;;;;;4199333;28;20215;-91
2022/05/20 09:19:13;;;;;;;43.45;26.13;;;21.30;99.90;;;;;;4183021;28;20171;-90
2022/05/20 09:21:38;;;;;;;47.65;24.98;;;21.20;99.90;;;;;;4199425;28;20559;-90
2022/05/20 09:23:55;;;;;;;40.10;26.10;;;21.20;99.90;;;;;;4199237;28;20550;-89
2022/05/20 09:26:08;;;;;;;42.30;27.73;;;21.50;99.90;;;;;;4182687;28;20175;-90
2022/05/20 09:28:34;;;;;;;40.55;26.65;;;21.60;99.90;;;;;;4199144;28;20739;-86
2022/05/20 09:30:38;;;;;;;44.47;28.13;;;21.60;99.90;;;;;;4182720;28;20182;-89
2022/05/20 09:32:47;;;;;;;46.15;29.20;;;21.50;99.90;;;;;;4182544;28;20175;-90
2022/05/20 09:35:03;;;;;;;43.72;28.75;;;21.20;99.90;;;;;;4199036;28;20182;-88
2022/05/20 09:37:16;;;;;;;47.10;28.38;;;21.10;99.90;;;;;;4198949;28;20214;-89
2022/05/20 09:39:21;;;;;;;43.22;28.38;;;20.90;99.90;;;;;;4182373;28;20266;-89
2022/05/20 09:41:21;;;;;;;40.90;27.42;;;20.70;99.90;;;;;;4182412;28;20245;-91
2022/05/20 09:43:29;;;;;;;42.47;28.42;;;20.90;99.90;;;;;;4182421;28;20175;-89
2022/05/20 09:45:48;;;;;;;46.33;28.38;;;21.20;99.90;;;;;;4182499;28;20266;-89
2022/05/20 09:47:57;;;;;;;45.28;28.33;;;21.40;99.90;;;;;;4182495;28;20202;-90
2022/05/20 09:50:03;;;;;;;46.70;29.17;;;21.50;99.90;;;;;;4182477;28;20167;-89
2022/05/20 09:52:20;;;;;;;45.40;29.88;;;21.50;99.90;;;;;;4198667;28;20208;-90
2022/05/20 09:54:36;;;;;;;46.50;30.00;;;21.60;99.90;;;;;;4198978;28;20175;-87
2022/05/20 09:57:06;;;;;;;45.08;30.67;;;21.50;99.90;;;;;;4181897;28;20690;-87
2022/05/20 09:59:22;;;;;;;50.78;31.25;;;21.40;99.90;;;;;;4175610;28;20183;-90
2022/05/20 10:01:23;;;;;;;47.35;30.17;;;21.20;99.90;;;;;;4182048;28;20655;-90
2022/05/20 10:03:33;;;;;;;49.05;31.40;;;21.10;99.90;;;;;;4182202;28;20182;-86
2022/05/20 10:05:58;;;;;;;51.55;29.30;;;21.20;99.90;;;;;;4182025;28;20175;-89
2022/05/20 10:08:27;;;;;;;47.97;29.55;;;21.20;99.90;;;;;;4182072;28;20180;-89
2022/05/20 10:10:57;;;;;;;39.80;27.75;;;21.50;99.90;;;;;;4192687;28;20609;-91
2022/05/20 10:13:00;;;;;;;45.17;27.73;;;21.50;99.90;;;;;;4155444;28;20237;-88
2022/05/20 10:15:12;;;;;;;45.78;29.02;;;21.20;99.90;;;;;;4181564;28;20206;-90
2022/05/20 10:17:40;;;;;;;46.05;29.20;;;21.50;99.90;;;;;;4181759;28;20223;-89
2022/05/20 10:19:52;;;;;;;42.90;27.55;;;21.50;99.90;;;;;;4182081;28;20178;-89
2022/05/20 10:22:10;;;;;;;47.25;29.08;;;21.90;99.90;;;;;;4198616;28;20179;-88
2022/05/20 10:24:42;;;;;;;46.13;27.58;;;22.10;99.90;;;;;;4182016;28;20183;-90
2022/05/20 10:27:06;;;;;;;40.70;28.17;;;22.00;99.90;;;;;;4198377;28;20207;-89
2022/05/20 10:34:10;;;;;;;46.85;29.65;;;22.70;99.90;;;;;;4198209;28;20177;-89
2022/05/20 10:36:27;;;;;;;50.28;27.30;;;22.90;99.90;;;;;;4181468;28;20223;-90
2022/05/20 10:38:54;;;;;;;37.92;25.42;;;22.70;99.90;;;;;;4181873;28;20321;-89
2022/05/20 10:40:59;;;;;;;40.40;24.30;;;22.70;99.90;;;;;;4198897;28;20189;-90
2022/05/20 10:48:34;;;;;;;31.63;21.50;;;22.60;99.90;;;;;;4181155;28;20271;-91
2022/05/20 10:48:45;;;;;;;37.13;22.63;;;22.20;99.90;;;;;;4198153;28;20212;-88
2022/05/20 10:51:04;;;;;;;34.28;22.60;;;22.00;99.90;;;;;;4181414;28;20328;-90
2022/05/20 10:53:20;;;;;;;39.75;23.35;;;21.70;99.90;;;;;;4181472;28;20169;-91
2022/05/20 10:55:29;;;;;;;34.58;22.90;;;21.60;99.90;;;;;;4181179;28;20179;-93
2022/05/20 10:58:10;;;;;;;43.13;24.13;;;21.70;99.90;;;;;;4181206;28;20564;-92
2022/05/20 11:00:24;;;;;;;43.75;24.08;;;21.60;99.90;;;;;;4181417;28;20176;-91
2022/05/20 11:02:39;;;;;;;38.15;23.70;;;21.40;99.90;;;;;;4197740;28;20231;-91
2022/05/20 11:05:03;;;;;;;48.88;23.52;;;21.40;99.90;;;;;;4197853;28;20194;-90
2022/05/20 11:07:38;;;;;;;34.55;22.92;;;21.10;99.90;;;;;;4181178;28;20198;-92